Time;durP1;ratioP1;P1;durP2;ratioP2;P2;SDS_P1;SDS_P2;PMS_P1;PMS_P2;Temp;Humidity;BMP_temperature;BMP_pressure;BME280_temperature;BME280_humidity;BME280_pressure;Samples;Min_cycle;Max_cycle;Signal;HPM_P1;HPM_P2
2023/09/24 00:01:16;;;;;;;10.48;3.17;;;13.40;99.90;;;;;;5097147;28;20507;-75
2023/09/24 00:03:44;;;;;;;8.38;2.78;;;13.30;99.90;;;;;;5097596;28;20086;-75
2023/09/24 00:06:11;;;;;;;8.88;2.97;;;13.40;99.90;;;;;;5097169;28;20122;-74
2023/09/24 00:08:37;;;;;;;9.77;2.90;;;13.40;99.90;;;;;;5080392;28;20051;-74
2023/09/24 00:11:03;;;;;;;13.88;3.50;;;13.40;99.90;;;;;;5095914;28;20396;-74
2023/09/24 00:13:29;;;;;;;8.75;2.47;;;13.40;99.90;;;;;;5097257;28;20131;-74
2023/09/24 00:16:06;;;;;;;8.35;2.92;;;13.40;99.90;;;;;;5080283;28;20050;-75
2023/09/24 00:18:36;;;;;;;8.95;2.85;;;13.30;99.90;;;;;;5097346;28;20366;-75
2023/09/24 00:21:03;;;;;;;7.63;2.60;;;13.30;99.90;;;;;;5096631;28;20102;-74
2023/09/24 00:23:29;;;;;;;8.15;2.80;;;13.30;99.90;;;;;;5115333;28;20408;-74
2023/09/24 00:25:55;;;;;;;6.15;2.42;;;13.30;99.90;;;;;;5096997;28;20047;-74
2023/09/24 00:28:22;;;;;;;7.07;2.85;;;13.30;99.90;;;;;;5097064;28;20079;-74
2023/09/24 00:30:50;;;;;;;10.02;3.28;;;13.30;99.90;;;;;;5079858;28;20044;-73
2023/09/24 00:33:16;;;;;;;11.23;3.25;;;13.20;99.90;;;;;;5096661;28;20294;-73
2023/09/24 00:35:42;;;;;;;15.23;3.00;;;13.20;99.90;;;;;;5114773;28;20051;-73
2023/09/24 00:38:08;;;;;;;6.18;2.55;;;13.20;99.90;;;;;;5095926;28;20043;-74
2023/09/24 00:40:34;;;;;;;8.93;2.83;;;13.10;99.90;;;;;;5079643;28;20051;-73
2023/09/24 00:43:00;;;;;;;8.73;2.83;;;13.10;99.90;;;;;;5096014;28;20100;-74
2023/09/24 00:45:26;;;;;;;7.38;2.90;;;13.00;99.90;;;;;;5079868;28;20047;-74
2023/09/24 00:47:55;;;;;;;7.65;3.22;;;13.00;99.90;;;;;;5096519;28;20090;-73
2023/09/24 00:50:21;;;;;;;8.30;3.35;;;12.90;99.90;;;;;;5095758;28;20600;-73
2023/09/24 00:52:49;;;;;;;6.63;2.90;;;12.90;99.90;;;;;;5079362;28;20436;-73
2023/09/24 00:55:16;;;;;;;9.05;3.00;;;12.90;99.90;;;;;;5095291;28;20443;-74
2023/09/24 00:57:46;;;;;;;9.85;2.97;;;12.80;99.90;;;;;;5096451;28;20101;-73
2023/09/24 01:00:16;;;;;;;7.40;3.00;;;12.80;99.90;;;;;;5096190;28;20115;-73
2023/09/24 01:02:42;;;;;;;9.55;3.28;;;12.80;99.90;;;;;;5114495;28;20051;-73
2023/09/24 01:05:10;;;;;;;8.27;3.53;;;12.70;99.90;;;;;;5062338;28;20043;-73
2023/09/24 01:07:37;;;;;;;7.07;3.22;;;12.70;99.90;;;;;;5079808;28;20056;-74
2023/09/24 01:10:04;;;;;;;7.47;3.70;;;12.70;99.90;;;;;;5095925;28;20039;-73
2023/09/24 01:12:30;;;;;;;8.50;3.40;;;12.60;99.90;;;;;;5096273;28;20443;-73
2023/09/24 01:14:57;;;;;;;8.85;3.60;;;12.70;99.90;;;;;;5079487;28;20039;-73
2023/09/24 01:17:27;;;;;;;9.15;3.58;;;12.60;99.90;;;;;;5079012;28;20131;-73
2023/09/24 01:19:56;;;;;;;9.80;3.10;;;12.60;99.90;;;;;;5096191;28;20052;-73
2023/09/24 01:22:23;;;;;;;8.45;3.35;;;12.60;99.90;;;;;;5092023;28;20102;-73
2023/09/24 01:24:48;;;;;;;9.68;3.72;;;12.60;99.90;;;;;;5093598;28;20051;-73
2023/09/24 01:27:14;;;;;;;6.88;3.40;;;12.50;99.90;;;;;;5074961;28;20040;-73
2023/09/24 01:29:40;;;;;;;7.05;3.83;;;12.50;99.90;;;;;;5093472;28;20044;-74
2023/09/24 01:32:06;;;;;;;8.20;3.40;;;12.50;99.90;;;;;;5093284;28;20044;-74
2023/09/24 01:34:35;;;;;;;13.15;4.13;;;12.50;99.90;;;;;;5092568;28;20133;-73
2023/09/24 01:37:09;;;;;;;10.48;3.13;;;12.50;99.90;;;;;;5091708;28;20094;-69
2023/09/24 01:39:36;;;;;;;12.57;3.70;;;12.50;99.90;;;;;;5075296;28;20051;-69
2023/09/24 01:42:03;;;;;;;7.55;3.40;;;12.50;99.90;;;;;;5091619;28;20174;-69
2023/09/24 01:44:32;;;;;;;6.30;3.40;;;12.40;99.90;;;;;;5091364;28;20127;-71
2023/09/24 01:46:58;;;;;;;9.98;4.15;;;12.40;99.90;;;;;;5093059;28;20047;-69
2023/09/24 01:49:24;;;;;;;10.13;3.58;;;12.40;99.90;;;;;;5057932;28;20106;-69
2023/09/24 01:51:50;;;;;;;7.20;3.10;;;12.40;99.90;;;;;;5075133;28;20080;-71
2023/09/24 01:54:16;;;;;;;9.05;3.72;;;12.40;99.90;;;;;;5091450;28;20044;-70
2023/09/24 01:56:42;;;;;;;7.22;3.17;;;12.30;99.90;;;;;;5091884;28;20098;-72
2023/09/24 01:59:08;;;;;;;7.50;3.80;;;12.40;99.90;;;;;;5091507;28;20040;-70
2023/09/24 02:01:35;;;;;;;9.57;3.25;;;12.30;99.90;;;;;;5074442;28;20158;-69
2023/09/24 02:04:03;;;;;;;7.63;3.10;;;12.30;99.90;;;;;;5075147;28;20050;-69
2023/09/24 02:06:30;;;;;;;8.75;3.30;;;12.40;99.90;;;;;;5091363;28;20043;-70
2023/09/24 02:08:55;;;;;;;7.82;2.95;;;12.30;99.90;;;;;;5091830;28;20040;-69
2023/09/24 02:11:21;;;;;;;8.50;3.00;;;12.30;99.90;;;;;;5073564;28;20113;-69
2023/09/24 02:13:47;;;;;;;7.32;3.13;;;12.30;99.90;;;;;;5091786;28;20135;-70
2023/09/24 02:16:13;;;;;;;8.88;3.47;;;12.30;99.90;;;;;;5057860;28;20052;-77
2023/09/24 02:18:39;;;;;;;7.97;2.90;;;12.20;99.90;;;;;;5091324;28;20044;-69
2023/09/24 02:21:18;;;;;;;7.22;2.90;;;12.20;99.90;;;;;;5057970;28;20051;-70
2023/09/24 02:23:44;;;;;;;7.93;2.42;;;12.30;99.90;;;;;;5074615;28;20048;-70
2023/09/24 02:26:13;;;;;;;5.93;2.70;;;12.20;99.90;;;;;;5074705;28;20054;-68
2023/09/24 02:28:39;;;;;;;7.63;2.60;;;12.20;99.90;;;;;;5090968;28;20056;-69
2023/09/24 02:31:12;;;;;;;10.85;3.05;;;12.20;99.90;;;;;;5090945;28;20047;-69
2023/09/24 02:33:38;;;;;;;7.90;2.60;;;12.20;99.90;;;;;;5057842;28;20105;-68
2023/09/24 02:36:08;;;;;;;14.00;2.83;;;12.30;99.90;;;;;;5074293;28;20048;-69
2023/09/24 02:38:34;;;;;;;6.45;2.60;;;12.20;99.90;;;;;;5090580;28;20051;-77
2023/09/24 02:41:00;;;;;;;7.03;2.40;;;12.30;99.90;;;;;;5091134;28;20076;-69
2023/09/24 02:43:27;;;;;;;5.70;2.40;;;12.30;99.90;;;;;;5090597;28;20095;-70
2023/09/24 02:45:53;;;;;;;4.55;2.50;;;12.30;99.90;;;;;;5090986;28;20044;-69
2023/09/24 02:48:18;;;;;;;6.43;2.70;;;12.30;99.90;;;;;;5073833;28;20044;-76
2023/09/24 02:50:44;;;;;;;6.72;2.78;;;12.20;99.90;;;;;;5074016;28;20047;-70
2023/09/24 02:53:10;;;;;;;6.32;2.83;;;12.30;99.90;;;;;;5091211;28;20090;-70
2023/09/24 02:55:37;;;;;;;8.45;2.60;;;12.30;99.90;;;;;;5090448;28;20052;-70
2023/09/24 02:58:05;;;;;;;6.60;2.40;;;12.30;99.90;;;;;;5090995;28;20409;-70
2023/09/24 03:00:36;;;;;;;7.13;3.05;;;12.30;99.90;;;;;;5090805;28;20058;-70
2023/09/24 03:03:04;;;;;;;7.72;3.15;;;12.30;99.90;;;;;;5092149;28;20177;-69
2023/09/24 03:05:31;;;;;;;6.22;3.00;;;12.30;99.90;;;;;;5090873;28;20390;-68
2023/09/24 03:08:02;;;;;;;11.13;3.53;;;12.30;99.90;;;;;;5091939;28;20151;-69
2023/09/24 03:10:31;;;;;;;8.00;3.58;;;12.30;99.90;;;;;;5090312;28;20447;-70
2023/09/24 03:12:57;;;;;;;9.27;4.05;;;12.30;99.90;;;;;;5090713;28;20048;-70
2023/09/24 03:15:23;;;;;;;6.97;3.28;;;12.30;99.90;;;;;;5074110;28;20101;-75
2023/09/24 03:17:51;;;;;;;8.55;4.05;;;12.20;99.90;;;;;;5090549;28;20044;-69
2023/09/24 03:20:20;;;;;;;11.07;4.35;;;12.30;99.90;;;;;;5092902;28;20102;-69
2023/09/24 03:22:50;;;;;;;7.93;3.83;;;12.30;99.90;;;;;;5111607;28;20105;-69
2023/09/24 03:25:27;;;;;;;7.30;3.70;;;12.30;99.90;;;;;;5112452;28;20390;-68
2023/09/24 03:27:58;;;;;;;6.57;3.28;;;12.30;99.90;;;;;;5094158;28;20047;-69
2023/09/24 03:30:25;;;;;;;7.15;3.42;;;12.30;99.90;;;;;;5111993;28;20039;-70
2023/09/24 03:32:51;;;;;;;7.50;4.03;;;12.40;99.90;;;;;;5093921;28;20153;-69
2023/09/24 03:35:23;;;;;;;8.75;3.90;;;12.40;99.90;;;;;;5077302;28;20083;-70
2023/09/24 03:37:51;;;;;;;9.73;4.28;;;12.40;99.90;;;;;;5093564;28;20105;-70
2023/09/24 03:40:18;;;;;;;7.40;3.63;;;12.40;99.90;;;;;;5093995;28;20086;-69
2023/09/24 03:42:45;;;;;;;5.47;3.50;;;12.50;99.90;;;;;;5093494;28;20044;-72
2023/09/24 03:45:12;;;;;;;8.75;3.75;;;12.50;99.90;;;;;;5095296;28;20131;-69
2023/09/24 03:47:39;;;;;;;4.65;3.42;;;12.50;99.90;;;;;;5096922;28;20051;-69
2023/09/24 03:50:17;;;;;;;5.82;3.00;;;12.50;99.90;;;;;;5097299;28;20054;-69
2023/09/24 03:52:52;;;;;;;5.82;3.30;;;12.50;99.90;;;;;;5096957;28;20051;-68
2023/09/24 03:55:21;;;;;;;6.30;3.90;;;12.50;99.90;;;;;;5115406;28;20085;-68
2023/09/24 03:57:47;;;;;;;8.40;4.10;;;12.50;99.90;;;;;;5097192;28;20479;-69
2023/09/24 04:00:15;;;;;;;6.53;3.85;;;12.40;99.90;;;;;;5080294;28;20441;-69
2023/09/24 04:02:43;;;;;;;7.18;4.13;;;12.40;99.90;;;;;;5096893;28;20047;-69
2023/09/24 04:05:13;;;;;;;11.07;4.72;;;12.40;99.90;;;;;;5115087;28;20043;-68
2023/09/24 04:07:39;;;;;;;8.43;4.45;;;12.40;99.90;;;;;;5063715;28;20100;-68
2023/09/24 04:10:06;;;;;;;9.45;4.78;;;12.40;99.90;;;;;;5096805;28;20126;-68
2023/09/24 04:12:34;;;;;;;9.40;3.90;;;12.30;99.90;;;;;;5080205;28;20184;-69
2023/09/24 04:15:02;;;;;;;8.52;4.18;;;12.30;99.90;;;;;;5096877;28;20040;-68
2023/09/24 04:17:28;;;;;;;8.50;4.60;;;12.40;99.90;;;;;;5096886;28;20092;-68
2023/09/24 04:19:54;;;;;;;9.10;4.80;;;12.30;99.90;;;;;;5079764;28;20110;-68
2023/09/24 04:22:22;;;;;;;9.85;4.80;;;12.30;99.90;;;;;;5096163;28;20048;-69
2023/09/24 04:24:54;;;;;;;8.90;4.78;;;12.30;99.90;;;;;;5096576;28;20066;-69
2023/09/24 04:27:21;;;;;;;7.97;4.85;;;12.30;99.90;;;;;;5114979;28;20397;-70
2023/09/24 04:29:47;;;;;;;8.75;5.15;;;12.30;99.90;;;;;;5114415;28;20048;-69
2023/09/24 04:32:13;;;;;;;10.02;5.38;;;12.20;99.90;;;;;;5114685;28;20051;-69
2023/09/24 04:34:38;;;;;;;9.68;5.65;;;12.20;99.90;;;;;;5096325;28;20043;-75
2023/09/24 04:37:04;;;;;;;9.90;5.53;;;12.20;99.90;;;;;;5114204;28;20495;-68
2023/09/24 04:39:30;;;;;;;9.85;6.05;;;12.10;99.90;;;;;;5096287;28;20090;-69
2023/09/24 04:41:55;;;;;;;11.13;5.45;;;12.10;99.90;;;;;;5096167;28;20059;-69
2023/09/24 04:44:21;;;;;;;10.63;5.38;;;12.10;99.90;;;;;;5096510;28;20043;-69
2023/09/24 04:46:47;;;;;;;14.48;6.65;;;12.00;99.90;;;;;;5095962;28;20385;-68
2023/09/24 04:49:12;;;;;;;8.75;5.13;;;12.00;99.90;;;;;;5079614;28;20051;-68
2023/09/24 04:51:38;;;;;;;8.10;5.68;;;12.00;99.90;;;;;;5096341;28;20043;-69
2023/09/24 04:54:04;;;;;;;9.02;4.88;;;12.00;99.90;;;;;;5114075;28;20081;-69
2023/09/24 04:56:30;;;;;;;9.90;5.60;;;12.00;99.90;;;;;;5095954;28;20109;-68
2023/09/24 04:58:56;;;;;;;13.73;5.75;;;12.00;99.90;;;;;;5095521;28;20055;-68
2023/09/24 05:01:22;;;;;;;9.10;5.43;;;11.90;99.90;;;;;;5095862;28;20051;-68
2023/09/24 05:03:51;;;;;;;10.52;5.60;;;11.90;99.90;;;;;;5113646;28;20054;-70
2023/09/24 05:06:18;;;;;;;8.35;5.00;;;11.90;99.90;;;;;;5095907;28;20051;-69
2023/09/24 05:08:44;;;;;;;8.85;4.90;;;11.90;99.90;;;;;;5095625;28;20035;-71
2023/09/24 05:11:12;;;;;;;9.43;5.18;;;11.90;99.90;;;;;;5095682;28;20050;-69
2023/09/24 05:13:37;;;;;;;10.90;5.38;;;11.90;99.90;;;;;;5113858;28;20043;-69
2023/09/24 05:16:03;;;;;;;8.48;5.28;;;11.80;99.90;;;;;;5113507;28;20119;-69
2023/09/24 05:18:31;;;;;;;9.05;5.35;;;11.80;99.90;;;;;;5095322;28;20043;-69
2023/09/24 05:20:57;;;;;;;13.00;6.10;;;11.90;99.90;;;;;;5094911;28;20497;-69
2023/09/24 05:23:23;;;;;;;9.52;5.18;;;11.90;99.90;;;;;;5095550;28;20051;-69
2023/09/24 05:25:52;;;;;;;5.43;4.43;;;11.80;99.90;;;;;;5095196;28;20158;-69
2023/09/24 05:28:18;;;;;;;8.80;5.20;;;11.80;99.90;;;;;;5113426;28;20432;-69
2023/09/24 05:30:54;;;;;;;10.50;5.40;;;11.90;99.90;;;;;;5095480;28;20048;-72
2023/09/24 05:33:21;;;;;;;9.70;5.10;;;11.90;99.90;;;;;;5078614;28;20058;-69
2023/09/24 05:35:51;;;;;;;9.77;4.82;;;11.80;99.90;;;;;;5077956;28;20035;-74
2023/09/24 05:38:17;;;;;;;9.70;5.60;;;11.80;99.90;;;;;;5095056;28;20426;-69
2023/09/24 05:40:43;;;;;;;10.30;4.88;;;11.80;99.90;;;;;;5113372;28;20052;-69
2023/09/24 05:43:09;;;;;;;9.70;4.90;;;11.90;99.90;;;;;;5077909;28;20058;-69
2023/09/24 05:45:35;;;;;;;9.35;4.80;;;11.90;99.90;;;;;;5113249;28;20047;-69
2023/09/24 05:48:01;;;;;;;7.65;4.38;;;11.90;99.90;;;;;;5112703;28;20050;-69
2023/09/24 05:50:27;;;;;;;8.30;4.53;;;11.90;99.90;;;;;;5095055;28;20035;-69
2023/09/24 05:52:52;;;;;;;8.77;4.75;;;12.00;99.90;;;;;;5094583;28;20087;-69
2023/09/24 05:55:18;;;;;;;12.43;4.68;;;12.00;99.90;;;;;;5095091;28;20054;-68
2023/09/24 05:57:44;;;;;;;9.38;4.40;;;12.10;99.90;;;;;;5094934;28;20051;-69
2023/09/24 06:00:11;;;;;;;10.23;4.57;;;12.10;99.90;;;;;;5094668;28;20036;-68
2023/09/24 06:02:38;;;;;;;11.05;4.70;;;12.10;99.90;;;;;;5078361;28;20104;-69
2023/09/24 06:05:06;;;;;;;10.90;5.07;;;12.20;99.90;;;;;;5112485;28;20054;-68
2023/09/24 06:07:32;;;;;;;7.78;4.18;;;12.10;99.90;;;;;;5077007;28;20052;-69
2023/09/24 06:10:04;;;;;;;8.57;4.82;;;12.10;99.90;;;;;;5112388;28;20050;-68
2023/09/24 06:12:31;;;;;;;11.25;4.60;;;12.20;99.90;;;;;;5095070;28;20048;-69
2023/09/24 06:14:56;;;;;;;9.55;4.40;;;12.20;99.90;;;;;;5094231;28;20051;-69
2023/09/24 06:17:22;;;;;;;8.57;4.90;;;12.20;99.90;;;;;;5094708;28;20101;-69
2023/09/24 06:19:48;;;;;;;8.75;4.78;;;12.20;99.90;;;;;;5112548;28;20039;-69
2023/09/24 06:22:13;;;;;;;10.73;4.80;;;12.20;99.90;;;;;;5093738;28;20086;-69
2023/09/24 06:24:39;;;;;;;11.02;5.03;;;12.20;99.90;;;;;;5112708;28;20043;-69
2023/09/24 06:27:05;;;;;;;8.32;4.70;;;12.20;99.90;;;;;;5111897;28;20477;-69
2023/09/24 06:29:35;;;;;;;11.55;5.20;;;12.20;99.90;;;;;;5094352;28;20040;-69
2023/09/24 06:32:01;;;;;;;14.77;4.78;;;12.10;99.90;;;;;;5094160;28;20149;-69
2023/09/24 06:34:26;;;;;;;9.43;4.82;;;12.10;99.90;;;;;;5112669;28;20087;-68
2023/09/24 06:36:52;;;;;;;9.45;4.55;;;12.20;99.90;;;;;;5094519;28;20088;-69
2023/09/24 06:39:18;;;;;;;7.70;4.40;;;12.20;99.90;;;;;;5077216;28;20465;-69
2023/09/24 06:41:44;;;;;;;11.00;4.75;;;12.30;99.90;;;;;;5112520;28;20131;-69
2023/09/24 06:44:10;;;;;;;8.90;4.68;;;12.30;99.90;;;;;;5077122;28;20086;-69
2023/09/24 06:46:36;;;;;;;7.82;4.75;;;12.40;99.90;;;;;;5077681;28;20131;-69
2023/09/24 06:49:02;;;;;;;10.60;4.60;;;12.40;99.90;;;;;;5093980;28;20201;-68
2023/09/24 06:51:28;;;;;;;7.43;3.97;;;12.50;99.90;;;;;;5094106;28;20469;-69
2023/09/24 06:53:54;;;;;;;13.13;5.15;;;12.50;99.90;;;;;;5112518;28;20047;-69
2023/09/24 06:56:20;;;;;;;8.75;5.03;;;12.60;99.90;;;;;;5093804;28;20644;-69
2023/09/24 06:58:47;;;;;;;8.43;4.75;;;12.80;99.90;;;;;;5112251;28;20077;-69
2023/09/24 07:01:13;;;;;;;7.05;4.20;;;12.80;99.90;;;;;;5094000;28;20458;-68
2023/09/24 07:03:39;;;;;;;11.55;5.00;;;12.90;99.90;;;;;;5060978;28;20044;-68
2023/09/24 07:06:06;;;;;;;9.00;4.30;;;13.20;99.90;;;;;;5112143;28;20050;-69
2023/09/24 07:08:35;;;;;;;10.23;4.53;;;13.10;99.90;;;;;;5112138;28;20051;-70
2023/09/24 07:11:19;;;;;;;11.27;4.55;;;13.10;99.90;;;;;;5094016;28;20057;-75
2023/09/24 07:13:45;;;;;;;9.02;3.97;;;13.30;99.90;;;;;;5077443;28;20090;-68
2023/09/24 07:16:11;;;;;;;8.90;4.50;;;13.30;99.90;;;;;;5093376;28;20469;-69
2023/09/24 07:18:37;;;;;;;7.95;3.72;;;13.40;99.90;;;;;;5094679;28;20052;-69
2023/09/24 07:21:03;;;;;;;8.80;4.05;;;13.50;99.90;;;;;;5097710;28;20376;-75
2023/09/24 07:23:29;;;;;;;9.00;4.50;;;13.60;99.90;;;;;;5097872;28;20055;-69
2023/09/24 07:25:54;;;;;;;11.25;4.57;;;13.60;99.90;;;;;;5116070;28;20498;-69
2023/09/24 07:28:21;;;;;;;10.52;4.90;;;13.70;99.90;;;;;;5064225;28;20449;-69
2023/09/24 07:30:46;;;;;;;12.07;4.82;;;13.90;99.90;;;;;;5115709;28;20043;-69
2023/09/24 07:33:12;;;;;;;10.68;5.18;;;14.00;99.90;;;;;;5080381;28;20054;-68
2023/09/24 07:35:39;;;;;;;7.03;3.97;;;14.20;99.90;;;;;;5097507;28;20481;-68
2023/09/24 07:38:04;;;;;;;9.35;4.60;;;14.40;99.90;;;;;;5080492;28;20485;-74
2023/09/24 07:40:30;;;;;;;9.90;4.43;;;15.00;99.90;;;;;;5115295;28;20044;-68
2023/09/24 07:42:56;;;;;;;8.45;3.70;;;15.70;99.90;;;;;;5097572;28;20051;-69
2023/09/24 07:45:22;;;;;;;11.00;4.25;;;16.60;99.90;;;;;;5115296;28;20050;-68
2023/09/24 07:47:48;;;;;;;8.25;3.97;;;17.40;99.90;;;;;;5064069;28;20511;-70
2023/09/24 07:50:13;;;;;;;8.63;3.90;;;18.20;99.90;;;;;;5080077;28;20051;-69
2023/09/24 07:52:39;;;;;;;8.30;3.97;;;19.00;99.90;;;;;;5080176;28;20048;-69
2023/09/24 07:55:06;;;;;;;8.65;3.88;;;19.60;99.90;;;;;;5096956;28;20052;-70
2023/09/24 07:57:32;;;;;;;10.40;3.72;;;20.20;99.90;;;;;;5063219;28;20051;-70
2023/09/24 07:59:57;;;;;;;6.30;3.30;;;20.80;99.90;;;;;;5097196;28;20393;-68
2023/09/24 08:02:23;;;;;;;9.30;3.50;;;21.20;99.90;;;;;;5114786;28;20052;-68
2023/09/24 08:04:49;;;;;;;10.60;3.95;;;21.60;99.90;;;;;;5096850;28;20401;-69
2023/09/24 08:07:15;;;;;;;8.18;3.58;;;21.80;99.90;;;;;;5096669;28;20044;-65
2023/09/24 08:09:42;;;;;;;7.32;3.50;;;21.70;99.90;;;;;;5114580;28;20043;-68
2023/09/24 08:12:07;;;;;;;7.95;3.38;;;21.60;99.90;;;;;;5080258;28;20051;-65
2023/09/24 08:14:33;;;;;;;6.40;3.78;;;21.70;99.90;;;;;;5096314;28;20374;-65
2023/09/24 08:16:59;;;;;;;7.28;3.55;;;22.10;99.90;;;;;;5114596;28;20111;-66
2023/09/24 08:19:30;;;;;;;9.38;3.60;;;22.40;99.90;;;;;;5114554;28;20043;-66
2023/09/24 08:21:57;;;;;;;7.45;4.05;;;22.60;99.90;;;;;;5096414;28;20091;-66
2023/09/24 08:24:23;;;;;;;6.70;3.22;;;22.70;99.90;;;;;;5096122;28;20112;-66
2023/09/24 08:26:48;;;;;;;7.63;3.72;;;22.90;99.90;;;;;;5079811;28;20485;-69
2023/09/24 08:29:14;;;;;;;7.15;3.50;;;22.80;99.90;;;;;;5079802;28;20052;-74
2023/09/24 08:31:40;;;;;;;7.50;3.45;;;22.70;99.90;;;;;;5095551;28;20040;-66
2023/09/24 08:34:06;;;;;;;5.72;3.35;;;22.70;99.90;;;;;;5079566;28;20039;-67
2023/09/24 08:36:32;;;;;;;5.45;2.92;;;22.70;99.90;;;;;;5114247;28;20044;-65
2023/09/24 08:38:58;;;;;;;7.05;3.60;;;22.70;99.90;;;;;;5096523;28;20108;-67
2023/09/24 08:41:24;;;;;;;6.00;2.85;;;22.90;99.90;;;;;;5114285;28;20043;-66
2023/09/24 08:43:54;;;;;;;6.55;3.28;;;22.90;99.90;;;;;;5096215;28;20142;-66
2023/09/24 08:46:21;;;;;;;6.10;3.28;;;23.10;99.90;;;;;;5114512;28;20130;-66
2023/09/24 08:48:48;;;;;;;6.60;3.22;;;23.30;99.90;;;;;;5096419;28;20055;-65
2023/09/24 08:51:15;;;;;;;6.63;2.90;;;23.70;99.90;;;;;;5114230;28;20044;-65
2023/09/24 08:53:40;;;;;;;6.97;2.78;;;24.00;99.70;;;;;;5095954;28;20043;-66
2023/09/24 08:56:07;;;;;;;4.68;2.75;;;24.10;99.90;;;;;;5096035;28;20036;-66
2023/09/24 08:58:33;;;;;;;6.60;2.80;;;24.10;99.60;;;;;;5113919;28;20505;-67
2023/09/24 09:01:00;;;;;;;7.47;3.13;;;24.20;99.60;;;;;;5096100;28;20146;-67
2023/09/24 09:03:27;;;;;;;7.20;3.10;;;24.20;98.80;;;;;;5113753;28;20044;-66
2023/09/24 09:05:53;;;;;;;8.02;3.03;;;24.30;99.30;;;;;;5095658;28;20051;-66
2023/09/24 09:08:19;;;;;;;7.68;3.17;;;24.00;99.00;;;;;;5113698;28;20097;-71
2023/09/24 09:10:49;;;;;;;5.57;2.83;;;23.50;99.50;;;;;;5078696;28;20146;-65
2023/09/24 09:13:18;;;;;;;7.18;3.17;;;22.90;99.60;;;;;;5114044;28;20086;-66
2023/09/24 09:15:44;;;;;;;6.65;2.83;;;22.40;99.90;;;;;;5113620;28;20087;-66
2023/09/24 09:18:27;;;;;;;8.93;2.60;;;22.10;99.90;;;;;;5113794;28;20047;-66
2023/09/24 09:20:59;;;;;;;6.78;2.75;;;21.90;99.30;;;;;;5113821;28;20089;-65
2023/09/24 09:23:36;;;;;;;9.75;3.10;;;21.70;99.90;;;;;;5095339;28;20051;-68
2023/09/24 09:26:02;;;;;;;7.53;2.90;;;21.50;99.90;;;;;;5113679;28;20047;-67
2023/09/24 09:28:30;;;;;;;7.70;2.75;;;21.30;99.90;;;;;;5078146;28;20114;-68
2023/09/24 09:31:06;;;;;;;6.30;2.53;;;21.20;99.90;;;;;;5095087;28;20050;-66
2023/09/24 09:33:44;;;;;;;10.88;3.15;;;21.10;99.90;;;;;;5113114;28;20393;-66
2023/09/24 09:36:23;;;;;;;10.52;3.03;;;21.00;99.90;;;;;;5095601;28;20043;-67
2023/09/24 09:38:51;;;;;;;7.30;2.97;;;20.80;99.90;;;;;;5113370;28;20048;-66
2023/09/24 09:41:23;;;;;;;7.95;2.80;;;20.60;99.90;;;;;;5095209;28;20047;-65
2023/09/24 09:43:52;;;;;;;7.43;2.60;;;20.40;99.90;;;;;;5112924;28;20051;-65
2023/09/24 09:46:23;;;;;;;8.55;2.90;;;20.40;99.90;;;;;;5095245;28;20048;-65
2023/09/24 09:48:56;;;;;;;9.25;3.17;;;20.30;99.90;;;;;;5112854;28;20047;-66
2023/09/24 09:51:22;;;;;;;5.82;2.90;;;20.30;99.90;;;;;;5078095;28;20083;-66
2023/09/24 09:53:50;;;;;;;5.70;2.80;;;20.20;99.90;;;;;;5094764;28;20054;-67
2023/09/24 09:56:18;;;;;;;6.97;2.75;;;20.20;99.90;;;;;;5094786;28;20078;-67
2023/09/24 09:58:47;;;;;;;8.02;2.78;;;20.10;99.90;;;;;;5112648;28;20122;-67
2023/09/24 10:01:13;;;;;;;5.97;2.70;;;20.10;99.90;;;;;;5095456;28;20039;-67
2023/09/24 10:03:42;;;;;;;8.10;2.72;;;20.10;99.90;;;;;;5112253;28;20504;-67
2023/09/24 10:06:10;;;;;;;6.00;2.88;;;20.10;99.90;;;;;;5077832;28;20128;-67
2023/09/24 10:08:37;;;;;;;6.53;2.70;;;20.10;99.90;;;;;;5112012;28;20134;-67
2023/09/24 10:11:04;;;;;;;5.78;2.35;;;20.00;99.90;;;;;;5094779;28;20044;-68
2023/09/24 10:13:43;;;;;;;8.45;2.15;;;20.00;99.90;;;;;;5077441;28;20117;-74
2023/09/24 10:16:32;;;;;;;6.35;2.42;;;20.00;99.90;;;;;;5094094;28;20105;-67
2023/09/24 10:18:58;;;;;;;7.70;2.58;;;19.90;99.90;;;;;;5112429;28;20043;-67
2023/09/24 10:21:28;;;;;;;5.65;2.47;;;19.90;99.90;;;;;;5109641;28;20439;-68
2023/09/24 10:23:54;;;;;;;8.00;2.67;;;19.90;99.90;;;;;;5094123;28;20087;-68
2023/09/24 10:27:03;;;;;;;5.68;2.67;;;19.80;99.90;;;;;;5112064;28;20124;-67
2023/09/24 10:29:54;;;;;;;6.75;2.30;;;19.80;99.90;;;;;;4993362;28;20109;-68
2023/09/24 10:32:21;;;;;;;9.18;2.67;;;19.80;99.90;;;;;;4993835;28;20053;-67
2023/09/24 10:34:53;;;;;;;6.72;2.40;;;19.80;99.90;;;;;;5061779;28;20060;-68
2023/09/24 10:37:24;;;;;;;6.47;2.53;;;19.80;99.90;;;;;;5075978;28;20533;-73
2023/09/24 10:40:05;;;;;;;5.97;2.33;;;19.80;99.90;;;;;;5076559;28;20079;-66
2023/09/24 10:42:38;;;;;;;8.02;2.70;;;19.80;99.90;;;;;;5077297;28;20050;-66
2023/09/24 10:45:07;;;;;;;6.88;2.33;;;19.80;99.90;;;;;;5110242;28;20563;-66
2023/09/24 10:47:43;;;;;;;7.95;2.40;;;19.80;99.90;;;;;;5094087;28;20462;-72
2023/09/24 10:50:14;;;;;;;5.45;2.22;;;19.80;99.90;;;;;;5111686;28;20485;-66
2023/09/24 10:52:49;;;;;;;6.18;2.20;;;19.80;99.90;;;;;;5093676;28;20047;-68
2023/09/24 10:55:16;;;;;;;5.25;1.85;;;19.80;99.90;;;;;;5097847;28;20040;-67
2023/09/24 10:57:45;;;;;;;4.05;1.85;;;19.80;99.90;;;;;;5116223;28;20048;-66
2023/09/24 11:00:16;;;;;;;8.80;2.30;;;19.90;99.90;;;;;;5098595;28;20100;-70
2023/09/24 11:02:43;;;;;;;5.68;2.13;;;20.00;99.90;;;;;;5116113;28;20396;-67
2023/09/24 11:05:09;;;;;;;6.13;2.55;;;20.00;99.90;;;;;;5098325;28;20044;-67
2023/09/24 11:07:35;;;;;;;6.53;2.28;;;20.00;99.90;;;;;;5098506;28;20044;-70
2023/09/24 11:10:01;;;;;;;6.10;2.28;;;20.10;99.90;;;;;;5116106;28;20485;-67
2023/09/24 11:12:27;;;;;;;4.25;2.35;;;20.00;99.90;;;;;;5116431;28;20130;-67
2023/09/24 11:14:57;;;;;;;6.93;2.63;;;20.10;99.90;;;;;;5097782;28;20543;-67
2023/09/24 11:17:24;;;;;;;7.10;2.55;;;20.10;99.90;;;;;;5098096;28;20076;-67
2023/09/24 11:19:50;;;;;;;6.18;2.40;;;20.10;99.90;;;;;;5080769;28;20051;-67
2023/09/24 11:22:26;;;;;;;5.53;2.03;;;20.10;99.90;;;;;;5115920;28;20089;-66
2023/09/24 11:25:12;;;;;;;5.32;1.90;;;20.10;99.90;;;;;;5097742;28;20048;-67
2023/09/24 11:27:49;;;;;;;6.55;2.10;;;20.10;99.90;;;;;;5097706;28;20374;-71
2023/09/24 11:30:23;;;;;;;6.40;2.22;;;20.00;99.90;;;;;;5115461;28;20075;-67
2023/09/24 11:32:52;;;;;;;6.20;2.15;;;20.00;99.90;;;;;;5081086;28;20047;-66
2023/09/24 11:35:20;;;;;;;6.15;1.98;;;20.00;99.90;;;;;;5081021;28;20051;-68
2023/09/24 11:37:51;;;;;;;5.13;2.38;;;20.00;99.90;;;;;;5080354;28;20492;-67
2023/09/24 11:40:23;;;;;;;6.75;2.33;;;19.90;99.90;;;;;;5115321;28;20035;-67
2023/09/24 11:42:54;;;;;;;5.65;2.05;;;20.00;99.90;;;;;;5097290;28;20342;-67
2023/09/24 11:45:48;;;;;;;7.32;2.20;;;20.00;99.90;;;;;;5115499;28;20044;-66
2023/09/24 11:48:15;;;;;;;;;;;20.10;99.90;;;;;;5097891;28;20315;-66
2023/09/24 11:50:43;;;;;;;5.75;2.22;;;20.10;99.90;;;;;;5115095;28;19923;-67
2023/09/24 11:53:10;;;;;;;4.68;2.25;;;20.10;99.90;;;;;;5097110;28;20050;-66
2023/09/24 11:55:36;;;;;;;4.00;2.10;;;20.00;99.90;;;;;;5096530;28;20051;-66
2023/09/24 11:58:03;;;;;;;5.80;2.33;;;20.00;99.90;;;;;;5047087;28;20056;-66
2023/09/24 12:00:28;;;;;;;6.03;2.30;;;20.00;99.90;;;;;;5097392;28;20040;-66
2023/09/24 12:02:54;;;;;;;8.40;2.45;;;20.00;99.90;;;;;;5080071;28;20047;-66
2023/09/24 12:05:20;;;;;;;6.35;2.08;;;20.00;99.90;;;;;;5114057;28;20092;-66
2023/09/24 12:07:49;;;;;;;5.30;2.10;;;20.00;99.90;;;;;;5114943;28;20529;-67
2023/09/24 12:10:15;;;;;;;6.75;2.45;;;19.90;99.90;;;;;;5115289;28;20058;-66
2023/09/24 12:12:41;;;;;;;4.80;2.13;;;19.90;99.90;;;;;;5097200;28;20131;-66
2023/09/24 12:15:07;;;;;;;3.85;2.10;;;19.90;99.90;;;;;;5079709;28;20068;-67
2023/09/24 12:17:33;;;;;;;5.55;2.55;;;19.90;99.90;;;;;;5115300;28;20052;-68
2023/09/24 12:19:59;;;;;;;5.50;2.00;;;20.00;99.90;;;;;;5063408;28;20047;-68
2023/09/24 12:22:25;;;;;;;4.55;1.92;;;19.90;99.90;;;;;;5079512;28;20055;-67
2023/09/24 12:24:50;;;;;;;5.72;1.88;;;20.10;99.90;;;;;;5114601;28;20060;-67
2023/09/24 12:27:16;;;;;;;6.35;2.25;;;20.10;99.90;;;;;;5096765;28;20576;-66
2023/09/24 12:29:42;;;;;;;5.68;2.22;;;20.10;99.90;;;;;;5114405;28;20044;-68
2023/09/24 12:32:07;;;;;;;5.03;1.98;;;20.20;99.90;;;;;;5079722;28;20122;-67
2023/09/24 12:34:33;;;;;;;3.95;1.67;;;20.30;99.90;;;;;;5080044;28;20090;-68
2023/09/24 12:36:59;;;;;;;7.85;2.33;;;20.30;99.60;;;;;;5114806;28;20137;-67
2023/09/24 12:39:25;;;;;;;4.28;1.92;;;20.30;99.50;;;;;;5080154;28;20043;-67
2023/09/24 12:41:51;;;;;;;4.82;1.90;;;20.30;99.50;;;;;;5079642;28;20408;-66
2023/09/24 12:44:17;;;;;;;5.25;1.75;;;20.30;99.70;;;;;;5114653;28;20040;-67
2023/09/24 12:46:43;;;;;;;6.82;1.85;;;20.30;99.90;;;;;;5114772;28;20126;-70
2023/09/24 12:49:09;;;;;;;6.00;1.75;;;20.20;99.80;;;;;;5079351;28;20391;-67